createdAt,value
2022-07-29T00:02:27.918Z,17.05
2022-07-29T00:04:54.886Z,16.94
2022-07-29T00:07:21.727Z,16.92
2022-07-29T00:09:51.676Z,16.91
2022-07-29T00:12:26.306Z,16.94
2022-07-29T00:14:57.722Z,16.89
2022-07-29T00:17:25.445Z,17.01
2022-07-29T00:19:52.493Z,16.95
2022-07-29T00:22:20.182Z,16.99
2022-07-29T00:24:49.546Z,16.96
2022-07-29T00:27:16.310Z,16.91
2022-07-29T00:29:43.056Z,16.87
2022-07-29T00:32:09.828Z,16.83
2022-07-29T00:34:55.030Z,16.87
2022-07-29T00:37:22.158Z,16.82
2022-07-29T00:39:48.811Z,16.91
2022-07-29T00:42:15.605Z,16.80
2022-07-29T00:44:42.593Z,16.86
2022-07-29T00:47:13.507Z,16.82
2022-07-29T00:49:42.137Z,16.86
2022-07-29T00:52:10.309Z,16.83
2022-07-29T00:54:44.191Z,16.76
2022-07-29T00:57:12.219Z,16.69
2022-07-29T00:59:38.901Z,16.70
2022-07-29T01:02:05.659Z,16.73
2022-07-29T01:04:33.444Z,16.78
2022-07-29T01:07:03.683Z,16.73
2022-07-29T01:09:46.222Z,16.89
2022-07-29T01:12:25.713Z,16.70
2022-07-29T01:14:53.588Z,16.74
2022-07-29T01:17:32.470Z,16.71
2022-07-29T01:20:11.626Z,16.61
2022-07-29T01:22:47.225Z,16.62
2022-07-29T01:25:28.715Z,16.62
2022-07-29T01:28:07.066Z,16.62
2022-07-29T01:30:39.506Z,16.66
2022-07-29T01:33:34.722Z,16.70
2022-07-29T01:36:05.345Z,16.65
2022-07-29T01:38:32.421Z,16.85
2022-07-29T01:41:13.887Z,16.85
2022-07-29T01:43:49.780Z,16.71
2022-07-29T01:46:22.371Z,16.68
2022-07-29T01:48:56.119Z,16.75
2022-07-29T01:51:31.302Z,16.74
2022-07-29T01:54:16.730Z,16.79
2022-07-29T01:56:45.971Z,16.82
2022-07-29T01:59:12.873Z,16.74
2022-07-29T02:01:43.928Z,16.65
2022-07-29T02:04:26.651Z,16.63
2022-07-29T02:07:00.223Z,16.80
2022-07-29T02:09:28.336Z,16.75
2022-07-29T02:11:57.158Z,16.55
2022-07-29T02:14:25.525Z,16.65
2022-07-29T02:16:55.253Z,16.66
2022-07-29T02:19:24.400Z,16.54
2022-07-29T02:21:54.724Z,16.45
2022-07-29T02:24:24.445Z,16.47
2022-07-29T02:26:53.752Z,16.42
2022-07-29T02:29:23.522Z,16.33
2022-07-29T02:31:51.910Z,16.36
2022-07-29T02:34:20.474Z,16.27
2022-07-29T02:36:50.478Z,16.27
2022-07-29T02:39:18.239Z,16.23
2022-07-29T02:41:51.016Z,16.21
2022-07-29T02:44:20.453Z,16.12
2022-07-29T02:46:54.322Z,16.08
2022-07-29T02:49:32.958Z,16.09
2022-07-29T02:52:04.268Z,16.02
2022-07-29T02:54:45.437Z,16.18
2022-07-29T02:57:19.934Z,16.04
2022-07-29T02:59:51.104Z,16.04
2022-07-29T03:02:18.656Z,16.03
2022-07-29T03:04:47.265Z,16.03
2022-07-29T03:07:16.626Z,16.03
2022-07-29T03:09:43.956Z,15.97
2022-07-29T03:12:11.960Z,15.94
2022-07-29T03:14:39.529Z,15.96
2022-07-29T03:17:06.544Z,15.77
2022-07-29T03:19:35.233Z,15.73
2022-07-29T03:22:02.337Z,15.71
2022-07-29T03:24:32.394Z,15.60
2022-07-29T03:26:59.948Z,15.48
2022-07-29T03:29:33.450Z,15.46
2022-07-29T03:32:08.334Z,15.32
2022-07-29T03:34:36.782Z,15.38
2022-07-29T03:37:03.557Z,15.37
2022-07-29T03:39:34.112Z,15.29
2022-07-29T03:42:02.110Z,15.14
2022-07-29T03:44:30.219Z,15.17
2022-07-29T03:47:00.974Z,15.08
2022-07-29T03:49:28.944Z,15.30
2022-07-29T03:51:55.739Z,15.13
2022-07-29T03:54:23.429Z,15.21
2022-07-29T03:56:53.696Z,15.12
2022-07-29T03:59:23.368Z,15.16
2022-07-29T04:01:51.063Z,15.11
2022-07-29T04:04:18.322Z,15.08
2022-07-29T04:06:48.401Z,14.98
2022-07-29T04:09:15.674Z,15.02
2022-07-29T04:12:01.795Z,15.06
2022-07-29T04:14:29.907Z,15.00
2022-07-29T04:16:56.648Z,14.87
2022-07-29T04:19:23.657Z,14.92
2022-07-29T04:21:50.593Z,14.89
2022-07-29T04:24:17.854Z,14.91
2022-07-29T04:26:46.646Z,14.90
2022-07-29T04:29:15.108Z,14.91
2022-07-29T04:31:42.503Z,14.97
2022-07-29T04:34:10.064Z,15.19
2022-07-29T04:36:36.773Z,15.03
2022-07-29T04:39:04.140Z,14.90
2022-07-29T04:41:32.606Z,14.99
2022-07-29T04:44:02.023Z,15.07
2022-07-29T04:46:29.338Z,15.28
2022-07-29T04:48:56.443Z,15.31
2022-07-29T04:51:23.366Z,15.28
2022-07-29T04:53:50.082Z,15.36
2022-07-29T04:56:16.879Z,15.29
2022-07-29T04:58:43.523Z,15.15
2022-07-29T05:01:10.321Z,15.13
2022-07-29T05:03:37.219Z,15.07
2022-07-29T05:06:04.139Z,15.15
2022-07-29T05:08:30.795Z,15.24
2022-07-29T05:10:57.445Z,15.22
2022-07-29T05:13:24.479Z,15.27
2022-07-29T05:15:51.247Z,15.18
2022-07-29T05:18:18.044Z,15.31
2022-07-29T05:20:44.897Z,15.26
2022-07-29T05:23:13.817Z,15.25
2022-07-29T05:25:43.719Z,15.39
2022-07-29T05:28:12.414Z,15.45
2022-07-29T05:30:39.664Z,15.38
2022-07-29T05:33:06.584Z,15.52
2022-07-29T05:35:38.041Z,15.59
2022-07-29T05:38:08.157Z,15.52
2022-07-29T05:40:36.110Z,15.41
2022-07-29T05:43:03.120Z,15.39
2022-07-29T05:45:29.831Z,15.36
2022-07-29T05:47:56.612Z,15.39
2022-07-29T05:50:23.247Z,15.38
2022-07-29T05:52:50.036Z,15.48
2022-07-29T05:55:16.784Z,15.51
2022-07-29T05:57:44.476Z,15.47
2022-07-29T06:00:11.624Z,15.68
2022-07-29T06:02:41.439Z,15.79
2022-07-29T06:05:12.873Z,15.79
2022-07-29T06:07:49.990Z,15.95
2022-07-29T06:10:17.906Z,16.11
2022-07-29T06:12:44.853Z,16.19
2022-07-29T06:15:11.734Z,16.27
2022-07-29T06:17:38.336Z,16.29
2022-07-29T06:20:27.258Z,16.41
2022-07-29T06:22:54.138Z,16.50
2022-07-29T06:25:20.898Z,16.65
2022-07-29T06:27:47.607Z,16.93
2022-07-29T06:30:14.330Z,17.08
2022-07-29T06:32:43.258Z,17.77
2022-07-29T06:35:38.008Z,18.43
2022-07-29T06:37:58.846Z,17.76
2022-07-29T06:40:45.757Z,17.26
2022-07-29T06:43:12.536Z,17.16
2022-07-29T06:45:42.263Z,18.26
2022-07-29T06:48:09.957Z,19.40
2022-07-29T06:50:36.687Z,19.92
2022-07-29T06:53:04.240Z,20.14
2022-07-29T06:55:31.194Z,20.79
2022-07-29T06:57:58.154Z,21.07
2022-07-29T07:00:24.979Z,21.26
2022-07-29T07:02:51.846Z,20.81
2022-07-29T07:05:18.769Z,20.92
2022-07-29T07:07:45.470Z,21.66
2022-07-29T07:10:12.195Z,22.06
2022-07-29T07:12:39.009Z,21.66
2022-07-29T07:15:06.703Z,21.75
2022-07-29T07:17:33.623Z,21.48
2022-07-29T07:20:00.316Z,21.44
2022-07-29T07:22:27.125Z,21.82
2022-07-29T07:24:53.799Z,21.95
2022-07-29T07:27:20.623Z,22.15
2022-07-29T07:29:47.266Z,22.00
2022-07-29T07:32:17.606Z,21.81
2022-07-29T07:34:44.695Z,22.35
2022-07-29T07:37:12.497Z,23.23
2022-07-29T07:39:40.390Z,23.86
2022-07-29T07:42:07.243Z,23.61
2022-07-29T07:44:46.279Z,23.71
2022-07-29T07:47:21.418Z,23.07
2022-07-29T07:49:49.463Z,22.13
2022-07-29T07:52:21.542Z,21.90
2022-07-29T07:54:49.692Z,22.92
2022-07-29T07:57:16.766Z,23.98
2022-07-29T07:59:46.409Z,23.75
2022-07-29T08:02:13.303Z,22.76
2022-07-29T08:04:41.751Z,22.80
2022-07-29T08:07:09.900Z,22.63
2022-07-29T08:09:37.071Z,23.35
2022-07-29T08:12:04.944Z,23.85
2022-07-29T08:14:34.350Z,24.15
2022-07-29T08:17:01.214Z,24.39
2022-07-29T08:19:28.326Z,24.35
2022-07-29T08:21:55.413Z,24.29
2022-07-29T08:24:41.597Z,24.57
2022-07-29T08:27:26.927Z,24.70
2022-07-29T08:29:56.913Z,24.71
2022-07-29T08:32:50.926Z,24.75
2022-07-29T08:35:10.692Z,24.99
2022-07-29T08:37:37.322Z,25.18
2022-07-29T08:40:04.555Z,25.25
2022-07-29T08:42:31.547Z,25.22
2022-07-29T08:44:58.976Z,25.59
2022-07-29T08:47:27.422Z,25.31
2022-07-29T08:49:54.204Z,25.71
2022-07-29T08:52:22.797Z,26.22
2022-07-29T08:54:49.932Z,26.07
2022-07-29T08:57:17.469Z,25.74
2022-07-29T08:59:47.675Z,25.76
2022-07-29T09:02:21.166Z,25.81
2022-07-29T09:04:48.465Z,25.40
2022-07-29T09:07:19.470Z,25.47
2022-07-29T09:09:46.598Z,25.40
2022-07-29T09:12:13.601Z,25.34
2022-07-29T09:14:55.753Z,25.33
2022-07-29T09:17:47.541Z,25.86
2022-07-29T09:20:23.312Z,25.44
2022-07-29T09:22:51.868Z,25.33
2022-07-29T09:25:34.822Z,25.40
2022-07-29T09:28:09.245Z,25.11
2022-07-29T09:30:36.914Z,24.06
2022-07-29T09:33:04.480Z,23.76
2022-07-29T09:35:31.939Z,23.67
2022-07-29T09:37:59.077Z,23.55
2022-07-29T09:40:28.844Z,23.28
2022-07-29T09:42:59.510Z,23.54
2022-07-29T09:45:35.669Z,23.33
2022-07-29T09:48:15.591Z,23.28
2022-07-29T09:50:45.002Z,23.29
2022-07-29T09:53:12.475Z,23.12
2022-07-29T09:55:52.216Z,23.37
2022-07-29T09:58:23.570Z,23.07
2022-07-29T10:00:52.409Z,23.36
2022-07-29T10:03:20.071Z,23.24
2022-07-29T10:05:47.513Z,22.99
2022-07-29T10:08:14.270Z,23.26
2022-07-29T10:10:43.134Z,23.36
2022-07-29T10:13:16.092Z,23.09
2022-07-29T10:15:46.179Z,23.02
2022-07-29T10:18:15.508Z,23.02
2022-07-29T10:20:42.461Z,23.11
2022-07-29T10:23:10.393Z,23.19
2022-07-29T10:25:40.000Z,23.42
2022-07-29T10:28:07.484Z,23.67
2022-07-29T10:30:34.912Z,23.51
2022-07-29T10:33:35.663Z,23.44
2022-07-29T10:36:08.542Z,23.57
2022-07-29T10:38:35.942Z,23.50
2022-07-29T10:41:29.100Z,23.38
2022-07-29T10:44:12.375Z,23.50
2022-07-29T10:46:45.119Z,23.40
2022-07-29T10:49:27.227Z,23.49
2022-07-29T10:52:06.037Z,23.78
2022-07-29T10:54:52.048Z,24.13
2022-07-29T10:57:53.042Z,24.08
2022-07-29T11:00:17.039Z,24.39
2022-07-29T11:02:46.332Z,23.84
2022-07-29T11:05:19.652Z,23.85
2022-07-29T11:08:26.018Z,24.16
2022-07-29T11:11:15.862Z,24.15
2022-07-29T11:13:44.211Z,24.07
2022-07-29T11:16:11.349Z,24.30
2022-07-29T11:19:13.220Z,24.32
2022-07-29T11:21:54.030Z,24.44
2022-07-29T11:24:33.140Z,24.41
2022-07-29T11:27:09.327Z,24.43
2022-07-29T11:30:02.219Z,24.37
2022-07-29T11:32:41.516Z,24.42
2022-07-29T11:35:37.017Z,24.33
2022-07-29T11:38:33.975Z,24.42
2022-07-29T11:41:27.304Z,24.84
2022-07-29T11:43:59.157Z,25.05
2022-07-29T11:46:54.051Z,24.93
2022-07-29T11:49:32.275Z,24.93
2022-07-29T11:52:04.667Z,25.02
2022-07-29T11:54:38.841Z,24.94
2022-07-29T11:57:29.498Z,24.73
2022-07-29T12:00:12.497Z,24.52
2022-07-29T12:02:43.405Z,24.86
2022-07-29T12:05:12.074Z,24.91
2022-07-29T12:07:41.312Z,24.94
2022-07-29T12:10:20.201Z,25.00
2022-07-29T12:12:57.168Z,25.00
2022-07-29T12:15:31.500Z,25.27
2022-07-29T12:18:16.114Z,25.36
2022-07-29T12:20:45.978Z,25.46
2022-07-29T12:23:16.190Z,25.49
2022-07-29T12:25:45.155Z,25.38
2022-07-29T12:28:26.406Z,25.48
2022-07-29T12:30:53.975Z,25.38
2022-07-29T12:33:30.533Z,25.37
2022-07-29T12:36:10.375Z,25.21
2022-07-29T12:38:41.817Z,25.39
2022-07-29T12:41:08.695Z,25.35
2022-07-29T12:43:35.667Z,25.54
2022-07-29T12:46:14.747Z,25.63
2022-07-29T12:48:44.328Z,25.68
2022-07-29T12:51:13.387Z,25.76
2022-07-29T12:53:40.472Z,25.46
2022-07-29T12:56:40.689Z,25.57
2022-07-29T12:59:17.029Z,25.75
2022-07-29T13:01:44.874Z,25.77
2022-07-29T13:04:12.063Z,25.82
2022-07-29T13:06:45.899Z,25.91
2022-07-29T13:09:19.217Z,25.92
2022-07-29T13:11:52.193Z,25.96
2022-07-29T13:14:35.282Z,26.02
2022-07-29T13:17:14.121Z,25.89
2022-07-29T13:19:50.838Z,26.06
2022-07-29T13:22:23.436Z,25.99
2022-07-29T13:24:50.494Z,26.30
2022-07-29T13:27:18.430Z,26.19
2022-07-29T13:29:45.455Z,26.13
2022-07-29T13:32:14.265Z,25.98
2022-07-29T13:34:41.955Z,26.02
2022-07-29T13:37:08.861Z,26.05
2022-07-29T13:39:35.771Z,26.13
2022-07-29T13:42:02.591Z,26.03
2022-07-29T13:44:29.817Z,26.14
2022-07-29T13:46:57.020Z,26.09
2022-07-29T13:49:23.910Z,26.09
2022-07-29T13:51:51.130Z,25.93
2022-07-29T13:54:17.977Z,26.09
2022-07-29T13:56:44.916Z,26.23
2022-07-29T13:59:13.983Z,26.22
2022-07-29T14:01:43.243Z,26.05
2022-07-29T14:04:13.189Z,25.96
2022-07-29T14:06:40.570Z,25.78
2022-07-29T14:09:09.511Z,25.89
2022-07-29T14:11:36.669Z,25.78
2022-07-29T14:14:03.604Z,26.17
2022-07-29T14:16:30.496Z,26.21
2022-07-29T14:18:57.556Z,26.29
2022-07-29T14:21:25.134Z,26.27
2022-07-29T14:23:53.081Z,26.15
2022-07-29T14:26:24.135Z,26.12
2022-07-29T14:28:52.956Z,25.97
2022-07-29T14:31:19.930Z,26.01
2022-07-29T14:33:49.213Z,26.15
2022-07-29T14:36:16.317Z,26.00
2022-07-29T14:38:44.458Z,25.87
2022-07-29T14:41:11.329Z,25.94
2022-07-29T14:43:38.427Z,26.16
2022-07-29T14:46:08.337Z,26.33
2022-07-29T14:48:36.135Z,26.48
2022-07-29T14:51:05.025Z,26.17
2022-07-29T14:53:32.772Z,25.96
2022-07-29T14:56:15.036Z,25.76
2022-07-29T14:58:51.622Z,25.93
2022-07-29T15:01:22.125Z,26.33
2022-07-29T15:03:59.313Z,26.36
2022-07-29T15:06:28.010Z,25.95
2022-07-29T15:08:55.037Z,25.93
2022-07-29T15:11:21.929Z,25.99
2022-07-29T15:13:48.846Z,25.94
2022-07-29T15:16:17.924Z,26.07
2022-07-29T15:18:48.856Z,25.97
2022-07-29T15:21:16.911Z,26.08
2022-07-29T15:23:43.572Z,26.12
2022-07-29T15:26:10.682Z,26.30
2022-07-29T15:28:37.536Z,26.25
2022-07-29T15:31:05.038Z,26.25
2022-07-29T15:33:32.404Z,26.28
2022-07-29T15:36:00.062Z,26.13
2022-07-29T15:38:28.834Z,25.95
2022-07-29T15:40:59.512Z,25.83
2022-07-29T15:43:29.740Z,25.64
2022-07-29T15:46:15.211Z,25.57
2022-07-29T15:48:42.176Z,25.28
2022-07-29T15:51:10.032Z,25.19
2022-07-29T15:53:38.320Z,25.14
2022-07-29T15:56:06.630Z,25.39
2022-07-29T15:58:34.666Z,25.60
2022-07-29T16:01:01.662Z,25.68
2022-07-29T16:03:28.796Z,25.54
2022-07-29T16:05:55.663Z,25.42
2022-07-29T16:08:23.190Z,25.42
2022-07-29T16:10:50.225Z,25.16
2022-07-29T16:13:18.782Z,25.06
2022-07-29T16:15:46.293Z,25.14
2022-07-29T16:18:29.953Z,25.25
2022-07-29T16:21:01.791Z,25.49
2022-07-29T16:23:29.273Z,25.46
2022-07-29T16:26:05.154Z,25.56
2022-07-29T16:28:34.755Z,25.77
2022-07-29T16:31:01.653Z,25.94
2022-07-29T16:33:54.205Z,25.64
2022-07-29T16:36:21.338Z,25.65
2022-07-29T16:38:48.994Z,25.70
2022-07-29T16:41:15.997Z,25.36
2022-07-29T16:43:43.622Z,25.24
2022-07-29T16:46:13.200Z,24.93
2022-07-29T16:48:47.728Z,24.87
2022-07-29T16:51:17.636Z,25.01
2022-07-29T16:53:57.283Z,25.17
2022-07-29T16:56:25.077Z,25.30
2022-07-29T16:58:51.963Z,25.18
2022-07-29T17:01:19.090Z,25.11
2022-07-29T17:04:05.777Z,25.11
2022-07-29T17:06:35.156Z,24.97
2022-07-29T17:09:04.119Z,24.94
2022-07-29T17:11:51.941Z,24.96
2022-07-29T17:14:17.770Z,24.90
2022-07-29T17:17:00.314Z,24.88
2022-07-29T17:19:33.961Z,24.91
2022-07-29T17:22:09.221Z,24.79
2022-07-29T17:24:40.825Z,25.27
2022-07-29T17:27:07.934Z,25.64
2022-07-29T17:29:37.510Z,25.64
2022-07-29T17:32:07.426Z,26.04
2022-07-29T17:34:35.391Z,26.15
2022-07-29T17:37:02.197Z,26.01
2022-07-29T17:39:29.137Z,25.91
2022-07-29T17:41:55.932Z,25.85
2022-07-29T17:44:30.533Z,25.76
2022-07-29T17:47:20.021Z,25.76
2022-07-29T17:49:47.464Z,25.70
2022-07-29T17:52:18.584Z,25.65
2022-07-29T17:54:48.534Z,25.52
2022-07-29T17:57:24.862Z,25.32
2022-07-29T17:59:57.062Z,25.36
2022-07-29T18:02:30.833Z,25.41
2022-07-29T18:05:20.113Z,25.05
2022-07-29T18:08:00.377Z,24.83
2022-07-29T18:10:55.768Z,25.02
2022-07-29T18:13:37.167Z,24.99
2022-07-29T18:16:13.558Z,24.80
2022-07-29T18:19:29.845Z,24.56
2022-07-29T18:22:23.190Z,24.86
2022-07-29T18:28:16.073Z,24.45
2022-07-29T18:30:52.510Z,24.11
2022-07-29T18:33:34.808Z,23.73
2022-07-29T18:39:26.746Z,23.13
2022-07-29T18:42:03.365Z,22.87
2022-07-29T18:47:34.361Z,22.37
2022-07-29T18:50:37.727Z,22.34
2022-07-29T18:53:13.236Z,22.28
2022-07-29T18:55:40.104Z,22.35
2022-07-29T18:58:06.936Z,22.09
2022-07-29T19:00:33.622Z,21.94
2022-07-29T19:03:00.441Z,22.03
2022-07-29T19:05:27.372Z,21.86
2022-07-29T19:07:56.153Z,21.80
2022-07-29T19:10:22.982Z,21.82
2022-07-29T19:12:50.352Z,21.84
2022-07-29T19:15:20.468Z,21.93
2022-07-29T19:17:48.644Z,21.82
2022-07-29T19:20:16.083Z,21.69
2022-07-29T19:22:43.909Z,21.47
2022-07-29T19:25:11.236Z,21.36
2022-07-29T19:27:38.169Z,21.42
2022-07-29T19:30:07.061Z,21.23
2022-07-29T19:32:37.061Z,21.07
2022-07-29T19:35:24.085Z,21.00
2022-07-29T19:37:52.307Z,20.96
2022-07-29T19:40:19.373Z,20.85
2022-07-29T19:42:48.139Z,20.95
2022-07-29T19:45:14.816Z,20.73
2022-07-29T19:47:41.620Z,20.68
2022-07-29T19:50:09.242Z,20.62
2022-07-29T19:52:36.510Z,20.69
2022-07-29T19:55:07.652Z,20.56
2022-07-29T19:57:40.946Z,20.53
2022-07-29T20:00:11.346Z,20.60
2022-07-29T20:02:39.485Z,20.49
2022-07-29T20:05:07.267Z,20.42
2022-07-29T20:07:34.461Z,20.34
2022-07-29T20:10:01.533Z,20.23
2022-07-29T20:12:28.237Z,20.15
2022-07-29T20:14:55.068Z,20.05
2022-07-29T20:17:24.748Z,20.23
2022-07-29T20:19:51.973Z,20.13
2022-07-29T20:22:21.014Z,20.12
2022-07-29T20:24:58.144Z,19.94
2022-07-29T20:27:29.568Z,20.06
2022-07-29T20:29:56.259Z,19.88
2022-07-29T20:32:23.166Z,19.68
2022-07-29T20:34:49.908Z,19.74
2022-07-29T20:37:18.421Z,19.68
2022-07-29T20:39:47.834Z,19.69
2022-07-29T20:42:15.721Z,19.50
2022-07-29T20:44:42.593Z,19.54
2022-07-29T20:47:09.897Z,19.60
2022-07-29T20:49:37.047Z,19.41
2022-07-29T20:52:04.370Z,19.37
2022-07-29T20:54:31.245Z,19.29
2022-07-29T20:56:58.604Z,19.31
2022-07-29T20:59:26.171Z,19.13
2022-07-29T21:01:55.193Z,19.15
2022-07-29T21:04:22.066Z,19.06
2022-07-29T21:06:58.096Z,19.02
2022-07-29T21:09:24.898Z,18.98
2022-07-29T21:11:51.721Z,18.92
2022-07-29T21:14:41.449Z,18.81
2022-07-29T21:17:08.270Z,18.70
2022-07-29T21:19:35.527Z,18.63
2022-07-29T21:22:04.799Z,18.60
2022-07-29T21:24:32.032Z,18.44
2022-07-29T21:27:21.045Z,18.40
2022-07-29T21:29:49.189Z,18.35
2022-07-29T21:32:27.569Z,18.34
2022-07-29T21:34:56.700Z,18.35
2022-07-29T21:37:23.438Z,18.36
2022-07-29T21:39:50.252Z,18.25
2022-07-29T21:42:17.001Z,18.15
2022-07-29T21:44:44.310Z,18.12
2022-07-29T21:47:11.837Z,18.10
2022-07-29T21:49:40.232Z,18.04
2022-07-29T21:52:07.971Z,18.07
2022-07-29T21:54:35.650Z,17.96
2022-07-29T21:57:02.704Z,18.01
2022-07-29T21:59:29.821Z,18.14
2022-07-29T22:02:00.774Z,17.96
2022-07-29T22:04:49.950Z,18.12
2022-07-29T22:07:16.801Z,17.97
2022-07-29T22:09:44.644Z,17.84
2022-07-29T22:12:11.456Z,17.77
2022-07-29T22:14:38.329Z,17.81
2022-07-29T22:17:06.300Z,17.76
2022-07-29T22:19:34.680Z,17.77
2022-07-29T22:22:01.622Z,17.69
2022-07-29T22:24:28.312Z,17.80
2022-07-29T22:26:55.173Z,17.78
2022-07-29T22:29:21.896Z,17.92
2022-07-29T22:31:48.883Z,17.91
2022-07-29T22:34:15.700Z,17.93
2022-07-29T22:36:43.357Z,17.87
2022-07-29T22:39:10.213Z,17.73
2022-07-29T22:41:37.087Z,17.76
2022-07-29T22:44:04.080Z,17.73
2022-07-29T22:46:31.106Z,17.78
2022-07-29T22:48:58.364Z,17.74
2022-07-29T22:51:25.611Z,17.81
2022-07-29T22:53:52.643Z,17.74
2022-07-29T22:56:20.385Z,17.67
2022-07-29T22:58:47.388Z,17.63
2022-07-29T23:01:14.349Z,17.54
2022-07-29T23:03:41.517Z,17.63
2022-07-29T23:06:18.236Z,17.53
2022-07-29T23:08:45.093Z,17.49
2022-07-29T23:11:12.047Z,17.53
2022-07-29T23:13:38.844Z,17.42
2022-07-29T23:16:06.047Z,17.39
2022-07-29T23:18:32.831Z,17.36
2022-07-29T23:20:59.641Z,17.40
2022-07-29T23:23:26.403Z,17.34
2022-07-29T23:25:59.190Z,17.38
2022-07-29T23:28:26.037Z,17.32
2022-07-29T23:30:52.740Z,17.20
2022-07-29T23:33:19.628Z,17.17
2022-07-29T23:35:46.305Z,17.19
2022-07-29T23:38:13.169Z,17.11
2022-07-29T23:40:40.678Z,17.15
2022-07-29T23:43:08.595Z,17.10
2022-07-29T23:45:42.896Z,17.07
2022-07-29T23:48:11.943Z,16.99
2022-07-29T23:50:38.644Z,16.94
2022-07-29T23:53:05.523Z,16.89
2022-07-29T23:55:38.616Z,16.77
2022-07-29T23:58:05.558Z,16.90
